sensor_id;sensor_type;location;lat;lon;timestamp;temperature;humidity
44431;DHT22;30135;47.866;-4.222;2024-01-10T00:02:06;2.50;80.60
44431;DHT22;30135;47.866;-4.222;2024-01-10T00:04:32;2.50;80.60
44431;DHT22;30135;47.866;-4.222;2024-01-10T00:06:58;2.50;80.50
44431;DHT22;30135;47.866;-4.222;2024-01-10T00:09:23;2.60;80.60
44431;DHT22;30135;47.866;-4.222;2024-01-10T00:11:49;2.60;80.60
44431;DHT22;30135;47.866;-4.222;2024-01-10T00:14:15;2.60;80.50
44431;DHT22;30135;47.866;-4.222;2024-01-10T00:16:42;2.60;80.40
44431;DHT22;30135;47.866;-4.222;2024-01-10T00:19:08;2.60;80.40
44431;DHT22;30135;47.866;-4.222;2024-01-10T00:21:34;2.60;80.50
44431;DHT22;30135;47.866;-4.222;2024-01-10T00:24:01;2.60;80.40
44431;DHT22;30135;47.866;-4.222;2024-01-10T00:26:27;2.60;80.40
44431;DHT22;30135;47.866;-4.222;2024-01-10T00:28:53;2.60;80.40
44431;DHT22;30135;47.866;-4.222;2024-01-10T00:31:19;2.50;80.10
44431;DHT22;30135;47.866;-4.222;2024-01-10T00:33:45;2.50;80.30
44431;DHT22;30135;47.866;-4.222;2024-01-10T00:36:11;2.60;80.30
44431;DHT22;30135;47.866;-4.222;2024-01-10T00:38:37;2.60;80.30
44431;DHT22;30135;47.866;-4.222;2024-01-10T00:41:03;2.60;80.30
44431;DHT22;30135;47.866;-4.222;2024-01-10T00:43:29;2.60;80.20
44431;DHT22;30135;47.866;-4.222;2024-01-10T00:45:55;2.60;80.20
44431;DHT22;30135;47.866;-4.222;2024-01-10T00:48:21;2.60;80.20
44431;DHT22;30135;47.866;-4.222;2024-01-10T00:50:47;2.60;80.10
44431;DHT22;30135;47.866;-4.222;2024-01-10T00:53:13;2.60;80.10
44431;DHT22;30135;47.866;-4.222;2024-01-10T00:55:39;2.60;80.10
44431;DHT22;30135;47.866;-4.222;2024-01-10T00:58:05;2.60;80.20
44431;DHT22;30135;47.866;-4.222;2024-01-10T01:00:32;2.50;80.10
44431;DHT22;30135;47.866;-4.222;2024-01-10T01:02:58;2.60;80.10
44431;DHT22;30135;47.866;-4.222;2024-01-10T01:05:24;2.60;80.10
44431;DHT22;30135;47.866;-4.222;2024-01-10T01:07:50;2.50;80.00
44431;DHT22;30135;47.866;-4.222;2024-01-10T01:10:16;2.50;80.10
44431;DHT22;30135;47.866;-4.222;2024-01-10T01:12:42;2.60;80.10
44431;DHT22;30135;47.866;-4.222;2024-01-10T01:15:08;2.60;80.10
44431;DHT22;30135;47.866;-4.222;2024-01-10T01:17:34;2.60;80.10
44431;DHT22;30135;47.866;-4.222;2024-01-10T01:20:00;2.60;80.10
44431;DHT22;30135;47.866;-4.222;2024-01-10T01:22:29;2.60;80.10
44431;DHT22;30135;47.866;-4.222;2024-01-10T01:24:56;2.60;80.00
44431;DHT22;30135;47.866;-4.222;2024-01-10T01:27:23;2.60;79.90
44431;DHT22;30135;47.866;-4.222;2024-01-10T01:29:49;2.60;80.00
44431;DHT22;30135;47.866;-4.222;2024-01-10T01:32:15;2.60;80.00
44431;DHT22;30135;47.866;-4.222;2024-01-10T01:34:41;2.60;79.90
44431;DHT22;30135;47.866;-4.222;2024-01-10T01:37:07;2.60;79.90
44431;DHT22;30135;47.866;-4.222;2024-01-10T01:39:33;2.60;79.90
44431;DHT22;30135;47.866;-4.222;2024-01-10T01:41:59;2.60;79.90
44431;DHT22;30135;47.866;-4.222;2024-01-10T01:44:25;2.60;79.80
44431;DHT22;30135;47.866;-4.222;2024-01-10T01:46:51;2.50;79.60
44431;DHT22;30135;47.866;-4.222;2024-01-10T01:49:17;2.50;79.90
44431;DHT22;30135;47.866;-4.222;2024-01-10T01:51:43;2.50;79.90
44431;DHT22;30135;47.866;-4.222;2024-01-10T01:54:10;2.50;80.10
44431;DHT22;30135;47.866;-4.222;2024-01-10T01:56:37;2.50;79.90
44431;DHT22;30135;47.866;-4.222;2024-01-10T01:59:08;2.60;80.00
44431;DHT22;30135;47.866;-4.222;2024-01-10T02:01:34;2.50;79.90
44431;DHT22;30135;47.866;-4.222;2024-01-10T02:04:01;2.50;80.10
44431;DHT22;30135;47.866;-4.222;2024-01-10T02:06:29;2.60;80.30
44431;DHT22;30135;47.866;-4.222;2024-01-10T02:08:56;2.50;80.20
44431;DHT22;30135;47.866;-4.222;2024-01-10T02:11:24;2.50;80.30
44431;DHT22;30135;47.866;-4.222;2024-01-10T02:13:51;2.60;80.40
44431;DHT22;30135;47.866;-4.222;2024-01-10T02:16:21;2.60;80.40
44431;DHT22;30135;47.866;-4.222;2024-01-10T02:18:49;2.60;80.40
44431;DHT22;30135;47.866;-4.222;2024-01-10T02:21:15;2.60;80.40
44431;DHT22;30135;47.866;-4.222;2024-01-10T02:23:42;2.50;80.30
44431;DHT22;30135;47.866;-4.222;2024-01-10T02:26:08;2.50;80.30
44431;DHT22;30135;47.866;-4.222;2024-01-10T02:28:34;2.50;80.60
44431;DHT22;30135;47.866;-4.222;2024-01-10T02:31:01;2.50;80.60
44431;DHT22;30135;47.866;-4.222;2024-01-10T02:33:28;2.50;80.80
44431;DHT22;30135;47.866;-4.222;2024-01-10T02:35:54;2.50;80.80
44431;DHT22;30135;47.866;-4.222;2024-01-10T02:38:20;2.50;80.80
44431;DHT22;30135;47.866;-4.222;2024-01-10T02:40:49;2.50;80.80
44431;DHT22;30135;47.866;-4.222;2024-01-10T02:43:15;2.50;81.00
44431;DHT22;30135;47.866;-4.222;2024-01-10T02:45:42;2.50;81.00
44431;DHT22;30135;47.866;-4.222;2024-01-10T02:48:07;2.50;81.10
44431;DHT22;30135;47.866;-4.222;2024-01-10T02:50:33;2.50;81.00
44431;DHT22;30135;47.866;-4.222;2024-01-10T02:52:59;2.50;81.00
44431;DHT22;30135;47.866;-4.222;2024-01-10T02:55:25;2.50;81.00
44431;DHT22;30135;47.866;-4.222;2024-01-10T02:57:51;2.50;81.20
44431;DHT22;30135;47.866;-4.222;2024-01-10T03:00:18;2.50;81.20
44431;DHT22;30135;47.866;-4.222;2024-01-10T03:02:44;2.50;81.20
44431;DHT22;30135;47.866;-4.222;2024-01-10T03:05:10;2.50;81.30
44431;DHT22;30135;47.866;-4.222;2024-01-10T03:07:35;2.60;81.40
44431;DHT22;30135;47.866;-4.222;2024-01-10T03:10:02;2.60;81.40
44431;DHT22;30135;47.866;-4.222;2024-01-10T03:12:29;2.60;81.50
44431;DHT22;30135;47.866;-4.222;2024-01-10T03:14:55;2.60;81.40
44431;DHT22;30135;47.866;-4.222;2024-01-10T03:17:21;2.50;81.60
44431;DHT22;30135;47.866;-4.222;2024-01-10T03:19:47;2.50;81.60
44431;DHT22;30135;47.866;-4.222;2024-01-10T03:22:13;2.50;81.70
44431;DHT22;30135;47.866;-4.222;2024-01-10T03:24:39;2.50;81.70
44431;DHT22;30135;47.866;-4.222;2024-01-10T03:27:06;2.50;81.80
44431;DHT22;30135;47.866;-4.222;2024-01-10T03:29:32;2.60;82.00
44431;DHT22;30135;47.866;-4.222;2024-01-10T03:31:58;2.60;81.90
44431;DHT22;30135;47.866;-4.222;2024-01-10T03:34:24;2.60;81.90
44431;DHT22;30135;47.866;-4.222;2024-01-10T03:36:50;2.60;82.10
44431;DHT22;30135;47.866;-4.222;2024-01-10T03:39:16;2.50;82.00
44431;DHT22;30135;47.866;-4.222;2024-01-10T03:41:42;2.50;82.00
44431;DHT22;30135;47.866;-4.222;2024-01-10T03:44:08;2.50;82.00
44431;DHT22;30135;47.866;-4.222;2024-01-10T03:46:34;2.50;82.10
44431;DHT22;30135;47.866;-4.222;2024-01-10T03:49:00;2.50;82.00
44431;DHT22;30135;47.866;-4.222;2024-01-10T03:51:26;2.50;82.00
44431;DHT22;30135;47.866;-4.222;2024-01-10T03:53:53;2.50;82.10
44431;DHT22;30135;47.866;-4.222;2024-01-10T03:56:20;2.60;82.20
44431;DHT22;30135;47.866;-4.222;2024-01-10T03:58:46;2.50;82.00
44431;DHT22;30135;47.866;-4.222;2024-01-10T04:01:15;2.50;82.10
44431;DHT22;30135;47.866;-4.222;2024-01-10T04:03:42;2.50;82.20
44431;DHT22;30135;47.866;-4.222;2024-01-10T04:06:08;2.50;82.20
44431;DHT22;30135;47.866;-4.222;2024-01-10T04:08:34;2.60;82.30
44431;DHT22;30135;47.866;-4.222;2024-01-10T04:11:01;2.60;82.40
44431;DHT22;30135;47.866;-4.222;2024-01-10T04:13:28;2.50;82.10
44431;DHT22;30135;47.866;-4.222;2024-01-10T04:15:54;2.50;82.20
44431;DHT22;30135;47.866;-4.222;2024-01-10T04:18:20;2.50;82.30
44431;DHT22;30135;47.866;-4.222;2024-01-10T04:20:48;2.50;82.30
44431;DHT22;30135;47.866;-4.222;2024-01-10T04:23:15;2.50;82.40
44431;DHT22;30135;47.866;-4.222;2024-01-10T04:25:41;2.50;82.50
44431;DHT22;30135;47.866;-4.222;2024-01-10T04:28:07;2.50;82.50
44431;DHT22;30135;47.866;-4.222;2024-01-10T04:30:33;2.50;82.60
44431;DHT22;30135;47.866;-4.222;2024-01-10T04:32:59;2.50;82.60
44431;DHT22;30135;47.866;-4.222;2024-01-10T04:35:25;2.60;82.60
44431;DHT22;30135;47.866;-4.222;2024-01-10T04:37:51;2.50;82.60
44431;DHT22;30135;47.866;-4.222;2024-01-10T04:40:17;2.60;82.60
44431;DHT22;30135;47.866;-4.222;2024-01-10T04:42:44;2.60;82.60
44431;DHT22;30135;47.866;-4.222;2024-01-10T04:45:10;2.50;83.20
44431;DHT22;30135;47.866;-4.222;2024-01-10T04:47:36;2.50;82.60
44431;DHT22;30135;47.866;-4.222;2024-01-10T04:50:02;2.50;82.80
44431;DHT22;30135;47.866;-4.222;2024-01-10T04:52:28;2.50;82.70
44431;DHT22;30135;47.866;-4.222;2024-01-10T04:54:55;2.60;82.70
44431;DHT22;30135;47.866;-4.222;2024-01-10T04:57:21;2.60;82.60
44431;DHT22;30135;47.866;-4.222;2024-01-10T04:59:47;2.50;82.50
44431;DHT22;30135;47.866;-4.222;2024-01-10T05:02:12;2.50;82.50
44431;DHT22;30135;47.866;-4.222;2024-01-10T05:04:38;2.50;82.70
44431;DHT22;30135;47.866;-4.222;2024-01-10T05:07:04;2.50;82.70
44431;DHT22;30135;47.866;-4.222;2024-01-10T05:09:31;2.60;82.90
44431;DHT22;30135;47.866;-4.222;2024-01-10T05:11:57;2.60;82.80
44431;DHT22;30135;47.866;-4.222;2024-01-10T05:14:23;2.60;82.80
44431;DHT22;30135;47.866;-4.222;2024-01-10T05:16:49;2.60;82.70
44431;DHT22;30135;47.866;-4.222;2024-01-10T05:19:15;2.60;82.60
44431;DHT22;30135;47.866;-4.222;2024-01-10T05:21:41;2.60;82.70
44431;DHT22;30135;47.866;-4.222;2024-01-10T05:24:07;2.60;82.60
44431;DHT22;30135;47.866;-4.222;2024-01-10T05:26:33;2.60;82.70
44431;DHT22;30135;47.866;-4.222;2024-01-10T05:28:59;2.70;82.60
44431;DHT22;30135;47.866;-4.222;2024-01-10T05:31:25;2.60;82.40
44431;DHT22;30135;47.866;-4.222;2024-01-10T05:33:51;2.60;82.40
44431;DHT22;30135;47.866;-4.222;2024-01-10T05:36:17;2.70;82.40
44431;DHT22;30135;47.866;-4.222;2024-01-10T05:38:42;2.70;82.40
44431;DHT22;30135;47.866;-4.222;2024-01-10T05:41:09;2.70;82.50
44431;DHT22;30135;47.866;-4.222;2024-01-10T05:43:35;2.70;82.40
44431;DHT22;30135;47.866;-4.222;2024-01-10T05:46:01;2.70;82.50
44431;DHT22;30135;47.866;-4.222;2024-01-10T05:48:26;2.70;82.40
44431;DHT22;30135;47.866;-4.222;2024-01-10T05:50:52;2.70;82.10
44431;DHT22;30135;47.866;-4.222;2024-01-10T05:53:18;2.60;82.30
44431;DHT22;30135;47.866;-4.222;2024-01-10T05:55:44;2.60;82.10
44431;DHT22;30135;47.866;-4.222;2024-01-10T05:58:11;2.60;82.10
44431;DHT22;30135;47.866;-4.222;2024-01-10T06:00:37;2.50;82.00
44431;DHT22;30135;47.866;-4.222;2024-01-10T06:03:04;2.50;82.10
44431;DHT22;30135;47.866;-4.222;2024-01-10T06:05:30;2.50;82.30
44431;DHT22;30135;47.866;-4.222;2024-01-10T06:07:59;2.50;82.10
44431;DHT22;30135;47.866;-4.222;2024-01-10T06:10:25;2.50;82.10
44431;DHT22;30135;47.866;-4.222;2024-01-10T06:12:53;2.50;82.00
44431;DHT22;30135;47.866;-4.222;2024-01-10T06:15:22;2.50;82.10
44431;DHT22;30135;47.866;-4.222;2024-01-10T06:17:48;2.50;82.20
44431;DHT22;30135;47.866;-4.222;2024-01-10T06:20:15;2.50;81.80
44431;DHT22;30135;47.866;-4.222;2024-01-10T06:22:41;2.40;81.70
44431;DHT22;30135;47.866;-4.222;2024-01-10T06:25:07;2.40;82.00
44431;DHT22;30135;47.866;-4.222;2024-01-10T06:27:34;2.40;81.80
44431;DHT22;30135;47.866;-4.222;2024-01-10T06:30:00;2.50;82.00
44431;DHT22;30135;47.866;-4.222;2024-01-10T06:32:26;2.40;82.00
44431;DHT22;30135;47.866;-4.222;2024-01-10T06:34:52;2.40;81.70
44431;DHT22;30135;47.866;-4.222;2024-01-10T06:37:18;2.40;81.80
44431;DHT22;30135;47.866;-4.222;2024-01-10T06:39:44;2.40;81.60
44431;DHT22;30135;47.866;-4.222;2024-01-10T06:42:11;2.30;81.70
44431;DHT22;30135;47.866;-4.222;2024-01-10T06:44:37;2.30;81.70
44431;DHT22;30135;47.866;-4.222;2024-01-10T06:47:03;2.30;81.60
44431;DHT22;30135;47.866;-4.222;2024-01-10T06:49:30;2.30;81.60
44431;DHT22;30135;47.866;-4.222;2024-01-10T06:51:55;2.30;81.70
44431;DHT22;30135;47.866;-4.222;2024-01-10T06:54:24;2.30;81.70
44431;DHT22;30135;47.866;-4.222;2024-01-10T06:56:50;2.30;81.90
44431;DHT22;30135;47.866;-4.222;2024-01-10T06:59:16;2.30;82.00
44431;DHT22;30135;47.866;-4.222;2024-01-10T07:01:41;2.30;81.90
44431;DHT22;30135;47.866;-4.222;2024-01-10T07:04:07;2.40;82.00
44431;DHT22;30135;47.866;-4.222;2024-01-10T07:06:33;2.40;82.00
44431;DHT22;30135;47.866;-4.222;2024-01-10T07:08:59;2.40;81.90
44431;DHT22;30135;47.866;-4.222;2024-01-10T07:11:25;2.40;82.00
44431;DHT22;30135;47.866;-4.222;2024-01-10T07:13:53;2.40;81.80
44431;DHT22;30135;47.866;-4.222;2024-01-10T07:16:19;2.30;82.00
44431;DHT22;30135;47.866;-4.222;2024-01-10T07:18:45;2.30;82.00
44431;DHT22;30135;47.866;-4.222;2024-01-10T07:21:13;2.30;82.10
44431;DHT22;30135;47.866;-4.222;2024-01-10T07:23:39;2.40;82.10
44431;DHT22;30135;47.866;-4.222;2024-01-10T07:26:07;2.30;82.00
44431;DHT22;30135;47.866;-4.222;2024-01-10T07:28:32;2.40;82.00
44431;DHT22;30135;47.866;-4.222;2024-01-10T07:30:59;2.40;82.00
44431;DHT22;30135;47.866;-4.222;2024-01-10T07:33:35;2.40;82.10
44431;DHT22;30135;47.866;-4.222;2024-01-10T07:36:04;2.40;82.30
44431;DHT22;30135;47.866;-4.222;2024-01-10T07:38:30;2.40;82.20
44431;DHT22;30135;47.866;-4.222;2024-01-10T07:40:56;2.40;82.10
44431;DHT22;30135;47.866;-4.222;2024-01-10T07:43:24;2.40;82.10
44431;DHT22;30135;47.866;-4.222;2024-01-10T07:45:52;2.40;82.20
44431;DHT22;30135;47.866;-4.222;2024-01-10T07:48:18;2.40;82.30
44431;DHT22;30135;47.866;-4.222;2024-01-10T07:50:45;2.40;82.40
44431;DHT22;30135;47.866;-4.222;2024-01-10T07:53:11;2.40;82.50
44431;DHT22;30135;47.866;-4.222;2024-01-10T07:55:38;2.40;82.60
44431;DHT22;30135;47.866;-4.222;2024-01-10T07:58:05;2.40;82.60
44431;DHT22;30135;47.866;-4.222;2024-01-10T08:00:31;2.40;82.70
44431;DHT22;30135;47.866;-4.222;2024-01-10T08:02:57;2.40;82.80
44431;DHT22;30135;47.866;-4.222;2024-01-10T08:05:23;2.40;82.90
44431;DHT22;30135;47.866;-4.222;2024-01-10T08:07:50;2.40;82.90
44431;DHT22;30135;47.866;-4.222;2024-01-10T08:10:16;2.50;83.00
44431;DHT22;30135;47.866;-4.222;2024-01-10T08:12:42;2.50;82.90
44431;DHT22;30135;47.866;-4.222;2024-01-10T08:15:08;2.50;82.90
44431;DHT22;30135;47.866;-4.222;2024-01-10T08:17:34;2.50;82.80
44431;DHT22;30135;47.866;-4.222;2024-01-10T08:20:04;2.50;82.80
44431;DHT22;30135;47.866;-4.222;2024-01-10T08:22:33;2.40;82.70
44431;DHT22;30135;47.866;-4.222;2024-01-10T08:24:59;2.50;82.90
44431;DHT22;30135;47.866;-4.222;2024-01-10T08:27:25;2.40;82.90
44431;DHT22;30135;47.866;-4.222;2024-01-10T08:29:51;2.40;82.90
44431;DHT22;30135;47.866;-4.222;2024-01-10T08:32:17;2.40;83.10
44431;DHT22;30135;47.866;-4.222;2024-01-10T08:34:44;2.40;82.30
44431;DHT22;30135;47.866;-4.222;2024-01-10T08:37:10;2.50;83.30
44431;DHT22;30135;47.866;-4.222;2024-01-10T08:39:36;2.50;83.10
44431;DHT22;30135;47.866;-4.222;2024-01-10T08:42:02;2.50;83.20
44431;DHT22;30135;47.866;-4.222;2024-01-10T08:44:28;2.50;83.20
44431;DHT22;30135;47.866;-4.222;2024-01-10T08:46:54;2.60;83.10
44431;DHT22;30135;47.866;-4.222;2024-01-10T08:49:20;2.60;83.10
44431;DHT22;30135;47.866;-4.222;2024-01-10T08:51:46;2.50;83.00
44431;DHT22;30135;47.866;-4.222;2024-01-10T08:54:12;2.60;83.00
44431;DHT22;30135;47.866;-4.222;2024-01-10T08:56:43;2.60;82.90
44431;DHT22;30135;47.866;-4.222;2024-01-10T08:59:12;2.60;83.00
44431;DHT22;30135;47.866;-4.222;2024-01-10T09:01:38;2.60;83.00
44431;DHT22;30135;47.866;-4.222;2024-01-10T09:04:05;2.60;82.90
44431;DHT22;30135;47.866;-4.222;2024-01-10T09:06:32;2.60;83.00
44431;DHT22;30135;47.866;-4.222;2024-01-10T09:08:58;2.60;83.00
44431;DHT22;30135;47.866;-4.222;2024-01-10T09:11:24;2.60;82.90
44431;DHT22;30135;47.866;-4.222;2024-01-10T09:13:51;2.60;82.60
44431;DHT22;30135;47.866;-4.222;2024-01-10T09:16:17;2.60;82.90
44431;DHT22;30135;47.866;-4.222;2024-01-10T09:18:46;2.60;82.80
44431;DHT22;30135;47.866;-4.222;2024-01-10T09:21:14;2.60;82.90
44431;DHT22;30135;47.866;-4.222;2024-01-10T09:23:41;2.60;82.90
44431;DHT22;30135;47.866;-4.222;2024-01-10T09:26:07;2.60;83.10
44431;DHT22;30135;47.866;-4.222;2024-01-10T09:28:34;2.60;83.00
44431;DHT22;30135;47.866;-4.222;2024-01-10T09:31:00;2.60;83.00
44431;DHT22;30135;47.866;-4.222;2024-01-10T09:33:26;2.60;82.90
44431;DHT22;30135;47.866;-4.222;2024-01-10T09:35:52;2.60;82.80
44431;DHT22;30135;47.866;-4.222;2024-01-10T09:38:18;2.60;82.80
44431;DHT22;30135;47.866;-4.222;2024-01-10T09:40:44;2.60;82.90
44431;DHT22;30135;47.866;-4.222;2024-01-10T09:43:13;2.60;82.90
44431;DHT22;30135;47.866;-4.222;2024-01-10T09:45:46;2.60;82.70
44431;DHT22;30135;47.866;-4.222;2024-01-10T09:48:14;2.60;82.80
44431;DHT22;30135;47.866;-4.222;2024-01-10T09:50:41;2.60;82.90
44431;DHT22;30135;47.866;-4.222;2024-01-10T09:53:07;2.70;82.90
44431;DHT22;30135;47.866;-4.222;2024-01-10T09:55:42;2.70;82.90
44431;DHT22;30135;47.866;-4.222;2024-01-10T09:58:09;2.70;82.90
44431;DHT22;30135;47.866;-4.222;2024-01-10T10:00:36;2.70;82.90
44431;DHT22;30135;47.866;-4.222;2024-01-10T10:03:04;2.70;82.80
44431;DHT22;30135;47.866;-4.222;2024-01-10T10:05:39;2.80;82.70
44431;DHT22;30135;47.866;-4.222;2024-01-10T10:08:14;2.80;82.70
44431;DHT22;30135;47.866;-4.222;2024-01-10T10:10:43;2.80;82.60
44431;DHT22;30135;47.866;-4.222;2024-01-10T10:13:10;2.80;82.40
44431;DHT22;30135;47.866;-4.222;2024-01-10T10:16:03;2.70;82.20
44431;DHT22;30135;47.866;-4.222;2024-01-10T10:18:31;2.80;82.40
44431;DHT22;30135;47.866;-4.222;2024-01-10T10:21:13;2.80;82.40
44431;DHT22;30135;47.866;-4.222;2024-01-10T10:24:00;2.70;82.30
44431;DHT22;30135;47.866;-4.222;2024-01-10T10:26:32;2.80;82.40
44431;DHT22;30135;47.866;-4.222;2024-01-10T10:28:59;2.80;82.20
44431;DHT22;30135;47.866;-4.222;2024-01-10T10:31:29;2.70;82.10
44431;DHT22;30135;47.866;-4.222;2024-01-10T10:34:02;2.70;82.20
44431;DHT22;30135;47.866;-4.222;2024-01-10T10:36:30;2.70;82.10
44431;DHT22;30135;47.866;-4.222;2024-01-10T10:38:59;2.70;82.40
44431;DHT22;30135;47.866;-4.222;2024-01-10T10:41:31;2.70;82.30
44431;DHT22;30135;47.866;-4.222;2024-01-10T10:43:58;2.80;82.50
44431;DHT22;30135;47.866;-4.222;2024-01-10T10:46:27;2.80;82.40
44431;DHT22;30135;47.866;-4.222;2024-01-10T10:48:54;2.80;82.20
44431;DHT22;30135;47.866;-4.222;2024-01-10T10:51:43;2.80;82.70
44431;DHT22;30135;47.866;-4.222;2024-01-10T10:54:09;2.90;82.20
44431;DHT22;30135;47.866;-4.222;2024-01-10T10:56:36;2.90;81.70
44431;DHT22;30135;47.866;-4.222;2024-01-10T10:59:03;3.00;82.10
44431;DHT22;30135;47.866;-4.222;2024-01-10T11:01:29;3.00;81.90
44431;DHT22;30135;47.866;-4.222;2024-01-10T11:03:57;3.10;81.60
44431;DHT22;30135;47.866;-4.222;2024-01-10T11:06:27;3.10;81.70
44431;DHT22;30135;47.866;-4.222;2024-01-10T11:08:59;3.10;81.50
44431;DHT22;30135;47.866;-4.222;2024-01-10T11:11:36;3.20;81.80
44431;DHT22;30135;47.866;-4.222;2024-01-10T11:25:59;3.50;80.70
44431;DHT22;30135;47.866;-4.222;2024-01-10T11:28:26;3.50;81.00
44431;DHT22;30135;47.866;-4.222;2024-01-10T11:30:55;3.50;80.90
44431;DHT22;30135;47.866;-4.222;2024-01-10T11:33:23;3.60;80.60
44431;DHT22;30135;47.866;-4.222;2024-01-10T11:36:16;3.60;80.40
44431;DHT22;30135;47.866;-4.222;2024-01-10T11:38:59;3.70;80.30
44431;DHT22;30135;47.866;-4.222;2024-01-10T11:41:30;3.70;80.10
44431;DHT22;30135;47.866;-4.222;2024-01-10T11:46:53;3.80;79.50
44431;DHT22;30135;47.866;-4.222;2024-01-10T11:49:24;3.80;79.40
44431;DHT22;30135;47.866;-4.222;2024-01-10T11:52:00;3.90;79.50
44431;DHT22;30135;47.866;-4.222;2024-01-10T11:54:43;3.90;79.00
44431;DHT22;30135;47.866;-4.222;2024-01-10T11:59:49;3.90;78.60
44431;DHT22;30135;47.866;-4.222;2024-01-10T12:02:17;4.00;78.90
44431;DHT22;30135;47.866;-4.222;2024-01-10T12:04:43;4.00;78.60
44431;DHT22;30135;47.866;-4.222;2024-01-10T12:07:12;4.00;78.70
44431;DHT22;30135;47.866;-4.222;2024-01-10T12:09:39;4.10;78.60
44431;DHT22;30135;47.866;-4.222;2024-01-10T12:12:06;4.10;78.20
44431;DHT22;30135;47.866;-4.222;2024-01-10T12:14:32;4.20;77.60
44431;DHT22;30135;47.866;-4.222;2024-01-10T12:17:00;4.20;78.10
44431;DHT22;30135;47.866;-4.222;2024-01-10T12:19:27;4.30;78.10
44431;DHT22;30135;47.866;-4.222;2024-01-10T12:21:53;4.40;78.10
44431;DHT22;30135;47.866;-4.222;2024-01-10T12:24:20;4.40;78.00
44431;DHT22;30135;47.866;-4.222;2024-01-10T12:26:47;4.50;77.40
44431;DHT22;30135;47.866;-4.222;2024-01-10T12:29:17;4.50;76.80
44431;DHT22;30135;47.866;-4.222;2024-01-10T12:31:46;4.50;76.90
44431;DHT22;30135;47.866;-4.222;2024-01-10T12:34:12;4.50;76.90
44431;DHT22;30135;47.866;-4.222;2024-01-10T12:36:40;4.50;76.90
44431;DHT22;30135;47.866;-4.222;2024-01-10T12:39:13;4.50;76.80
44431;DHT22;30135;47.866;-4.222;2024-01-10T12:41:40;4.60;76.80
44431;DHT22;30135;47.866;-4.222;2024-01-10T12:44:07;4.60;76.20
44431;DHT22;30135;47.866;-4.222;2024-01-10T12:46:33;4.50;76.10
44431;DHT22;30135;47.866;-4.222;2024-01-10T12:49:04;4.60;75.30
44431;DHT22;30135;47.866;-4.222;2024-01-10T12:51:33;4.60;75.80
44431;DHT22;30135;47.866;-4.222;2024-01-10T12:54:02;4.50;76.30
44431;DHT22;30135;47.866;-4.222;2024-01-10T12:56:30;4.60;76.60
44431;DHT22;30135;47.866;-4.222;2024-01-10T12:58:56;4.50;76.80
44431;DHT22;30135;47.866;-4.222;2024-01-10T13:01:24;4.60;76.70
44431;DHT22;30135;47.866;-4.222;2024-01-10T13:03:50;4.60;76.80
44431;DHT22;30135;47.866;-4.222;2024-01-10T13:08:44;4.60;76.20
44431;DHT22;30135;47.866;-4.222;2024-01-10T13:11:11;4.60;76.80
44431;DHT22;30135;47.866;-4.222;2024-01-10T13:13:40;4.60;76.80
44431;DHT22;30135;47.866;-4.222;2024-01-10T13:16:07;4.60;77.00
44431;DHT22;30135;47.866;-4.222;2024-01-10T13:18:37;4.70;77.00
44431;DHT22;30135;47.866;-4.222;2024-01-10T13:21:03;4.70;77.00
44431;DHT22;30135;47.866;-4.222;2024-01-10T13:23:30;4.70;76.80
44431;DHT22;30135;47.866;-4.222;2024-01-10T13:25:56;4.70;76.90
44431;DHT22;30135;47.866;-4.222;2024-01-10T13:28:22;4.80;76.90
44431;DHT22;30135;47.866;-4.222;2024-01-10T13:30:48;4.80;76.80
44431;DHT22;30135;47.866;-4.222;2024-01-10T13:33:16;4.80;77.00
44431;DHT22;30135;47.866;-4.222;2024-01-10T13:35:42;4.80;76.80
44431;DHT22;30135;47.866;-4.222;2024-01-10T13:38:08;4.80;76.60
44431;DHT22;30135;47.866;-4.222;2024-01-10T13:40:35;4.80;76.60
44431;DHT22;30135;47.866;-4.222;2024-01-10T13:43:04;4.80;76.10
44431;DHT22;30135;47.866;-4.222;2024-01-10T13:45:32;4.80;76.10
44431;DHT22;30135;47.866;-4.222;2024-01-10T13:47:58;4.70;76.70
44431;DHT22;30135;47.866;-4.222;2024-01-10T13:50:25;4.70;76.10
44431;DHT22;30135;47.866;-4.222;2024-01-10T13:52:52;4.80;76.40
44431;DHT22;30135;47.866;-4.222;2024-01-10T13:55:19;4.70;76.50
44431;DHT22;30135;47.866;-4.222;2024-01-10T13:57:46;4.80;76.70
44431;DHT22;30135;47.866;-4.222;2024-01-10T14:00:12;4.80;76.70
44431;DHT22;30135;47.866;-4.222;2024-01-10T14:02:43;4.80;76.50
44431;DHT22;30135;47.866;-4.222;2024-01-10T14:05:09;4.80;76.60
44431;DHT22;30135;47.866;-4.222;2024-01-10T14:07:36;4.80;76.10
44431;DHT22;30135;47.866;-4.222;2024-01-10T14:10:02;4.80;76.30
44431;DHT22;30135;47.866;-4.222;2024-01-10T14:12:28;4.80;76.20
44431;DHT22;30135;47.866;-4.222;2024-01-10T14:14:55;4.80;76.30
44431;DHT22;30135;47.866;-4.222;2024-01-10T14:17:22;4.80;76.50
44431;DHT22;30135;47.866;-4.222;2024-01-10T14:19:53;4.80;76.50
44431;DHT22;30135;47.866;-4.222;2024-01-10T14:22:20;4.80;76.50
44431;DHT22;30135;47.866;-4.222;2024-01-10T14:24:46;4.80;76.60
44431;DHT22;30135;47.866;-4.222;2024-01-10T14:27:12;4.80;76.50
44431;DHT22;30135;47.866;-4.222;2024-01-10T14:29:38;4.90;76.90
44431;DHT22;30135;47.866;-4.222;2024-01-10T14:32:04;4.90;76.80
44431;DHT22;30135;47.866;-4.222;2024-01-10T14:34:30;4.90;76.80
44431;DHT22;30135;47.866;-4.222;2024-01-10T14:36:56;5.00;76.90
44431;DHT22;30135;47.866;-4.222;2024-01-10T14:39:22;5.00;76.80
44431;DHT22;30135;47.866;-4.222;2024-01-10T14:41:49;5.00;76.80
44431;DHT22;30135;47.866;-4.222;2024-01-10T14:44:16;5.00;76.90
44431;DHT22;30135;47.866;-4.222;2024-01-10T14:46:42;5.00;76.80
44431;DHT22;30135;47.866;-4.222;2024-01-10T14:49:08;5.00;76.70
44431;DHT22;30135;47.866;-4.222;2024-01-10T14:51:34;5.00;76.80
44431;DHT22;30135;47.866;-4.222;2024-01-10T14:54:00;5.00;76.80
44431;DHT22;30135;47.866;-4.222;2024-01-10T14:56:27;4.90;76.60
44431;DHT22;30135;47.866;-4.222;2024-01-10T14:58:53;4.90;76.80
44431;DHT22;30135;47.866;-4.222;2024-01-10T15:01:19;4.90;76.70
44431;DHT22;30135;47.866;-4.222;2024-01-10T15:03:46;4.90;76.80
44431;DHT22;30135;47.866;-4.222;2024-01-10T15:06:12;4.90;77.10
44431;DHT22;30135;47.866;-4.222;2024-01-10T15:08:41;4.90;77.10
44431;DHT22;30135;47.866;-4.222;2024-01-10T15:11:07;4.90;77.10
44431;DHT22;30135;47.866;-4.222;2024-01-10T15:13:37;4.90;77.20
44431;DHT22;30135;47.866;-4.222;2024-01-10T15:16:04;4.90;77.20
44431;DHT22;30135;47.866;-4.222;2024-01-10T15:18:30;4.90;77.30
44431;DHT22;30135;47.866;-4.222;2024-01-10T15:20:56;5.00;77.50
44431;DHT22;30135;47.866;-4.222;2024-01-10T15:23:22;5.00;77.60
44431;DHT22;30135;47.866;-4.222;2024-01-10T15:25:48;4.90;77.40
44431;DHT22;30135;47.866;-4.222;2024-01-10T15:28:14;4.90;77.50
44431;DHT22;30135;47.866;-4.222;2024-01-10T15:30:40;4.90;77.50
44431;DHT22;30135;47.866;-4.222;2024-01-10T15:33:07;4.90;77.70
44431;DHT22;30135;47.866;-4.222;2024-01-10T15:35:35;4.90;77.80
44431;DHT22;30135;47.866;-4.222;2024-01-10T15:38:01;4.90;77.80
44431;DHT22;30135;47.866;-4.222;2024-01-10T15:40:27;4.90;77.70
44431;DHT22;30135;47.866;-4.222;2024-01-10T15:42:53;4.90;77.80
44431;DHT22;30135;47.866;-4.222;2024-01-10T15:45:19;4.90;78.10
44431;DHT22;30135;47.866;-4.222;2024-01-10T15:47:45;4.90;78.10
44431;DHT22;30135;47.866;-4.222;2024-01-10T15:50:11;4.90;78.10